3 juli 2022

Tijd Code Weer Temp. Zicht Plafond Wind METAR/SPECI
3:00 a.m.
V
68 °F 6¼ mi+ - Var 000° 0 kt METAR LFMT 030100Z AUTO 00000KT CAVOK 20/11 Q1018 NOSIG
2:30 a.m.
V
68 °F 6¼ mi+ - Var Var 2 kt METAR LFMT 030030Z AUTO VRB02KT CAVOK 20/12 Q1018 NOSIG
2:00 a.m.
V
66 °F 6¼ mi+ - 360° 360° 3 kt METAR LFMT 030000Z AUTO 36003KT CAVOK 19/12 Q1018 NOSIG
1:30 a.m.
V
68 °F 6¼ mi+ - Var 000° 0 kt METAR LFMT 022330Z AUTO 00000KT CAVOK 20/13 Q1019 NOSIG
1:00 a.m.
V
70 °F 6¼ mi+ - 360° 360° 1 kt METAR LFMT 022300Z AUTO 36001KT CAVOK 21/12 Q1019 NOSIG
12:30 a.m.
V
72 °F 6¼ mi+ - Var Var 2 kt METAR LFMT 022230Z AUTO VRB02KT CAVOK 22/12 Q1019 NOSIG
12:00 a.m.
V
73 °F 6¼ mi+ - 250° 250° 4 kt METAR LFMT 022200Z AUTO 25004KT CAVOK 23/11 Q1019 NOSIG

2 juli 2022

Tijd Code Weer Temp. Zicht Plafond Wind METAR/SPECI
11:30 p.m.
V
73 °F 6¼ mi+ - 230° 230° 5 kt METAR LFMT 022130Z AUTO 23005KT CAVOK 23/14 Q1019 NOSIG
11:00 p.m.
V
75 °F 6¼ mi+ - 230° 230° 5 kt METAR LFMT 022100Z AUTO 23005KT CAVOK 24/13 Q1019 NOSIG
10:30 p.m.
V
75 °F 6¼ mi+ - 230° 230° 6 kt METAR LFMT 022030Z AUTO 23006KT CAVOK 24/13 Q1018 NOSIG
10:00 p.m.
V
77 °F 6¼ mi+ - 250° 250° 7 kt METAR LFMT 022000Z AUTO 25007KT CAVOK 25/12 Q1018 NOSIG
9:30 p.m.
V
77 °F 6¼ mi+ - 240° 240° 8 kt METAR LFMT 021930Z AUTO 24008KT CAVOK 25/12 Q1018 NOSIG
9:00 p.m.
V
79 °F 6¼ mi+ - 230° 230° 10 kt METAR LFMT 021900Z AUTO 23010KT CAVOK 26/11 Q1018 NOSIG
8:30 p.m.
V
81 °F 6¼ mi+ - 230° 230° 12 kt METAR LFMT 021830Z AUTO 23012KT CAVOK 27/11 Q1018 NOSIG
8:00 p.m.
V
82 °F 6¼ mi+ - 230° 230° 12 kt METAR LFMT 021800Z AUTO 23012KT CAVOK 28/13 Q1018 NOSIG
7:30 p.m.
V
81 °F 6¼ mi+ - 230° 230° 12 kt METAR LFMT 021730Z AUTO 23012KT CAVOK 27/12 Q1017 NOSIG
7:00 p.m.
V
81 °F 6¼ mi+ - 240° 240° 12 kt METAR LFMT 021700Z AUTO 24012KT CAVOK 27/11 Q1018 NOSIG
6:30 p.m.
V
81 °F 6¼ mi+ - 230° 230° 14 kt METAR LFMT 021630Z AUTO 23014KT CAVOK 27/13 Q1018 NOSIG
6:00 p.m.
V
82 °F 6¼ mi+ - 220° 220° 13 kt METAR LFMT 021600Z AUTO 22013KT CAVOK 28/11 Q1018 NOSIG
5:30 p.m.
V
82 °F 6¼ mi+ - 220° 220° 10 kt METAR LFMT 021530Z AUTO 22010KT CAVOK 28/14 Q1018 NOSIG
5:00 p.m.
V
81 °F 6¼ mi+ - 220° 220° 12 kt METAR LFMT 021500Z AUTO 22012KT CAVOK 27/14 Q1018 NOSIG
4:30 p.m.
V
82 °F 6¼ mi+ - 210° 210° 12 kt METAR LFMT 021430Z AUTO 21012KT CAVOK 28/13 Q1018 NOSIG
4:00 p.m.
V
82 °F 6¼ mi+ - 210° 210° 11 kt METAR LFMT 021400Z AUTO 21011KT CAVOK 28/13 Q1018 NOSIG
3:30 p.m.
V
82 °F 6¼ mi+ - 210° 210° 10 kt METAR LFMT 021330Z AUTO 21010KT CAVOK 28/12 Q1018 NOSIG
3:00 p.m.
V
82 °F 6¼ mi+ - 200° 200° 11 kt METAR LFMT 021300Z AUTO 20011KT CAVOK 28/14 Q1018 NOSIG
2:30 p.m.
V
82 °F 6¼ mi+ - 200° 200° 10 kt METAR LFMT 021230Z AUTO 20010KT CAVOK 28/13 Q1018 NOSIG
2:00 p.m.
V
82 °F 6¼ mi+ - 200° 200° 10 kt METAR LFMT 021200Z AUTO 20010KT CAVOK 28/14 Q1018 NOSIG
1:30 p.m.
V
82 °F 6¼ mi+ - 210° 210° 11 kt METAR LFMT 021130Z AUTO 21011KT CAVOK 28/12 Q1019 NOSIG
1:00 p.m.
V
84 °F 6¼ mi+ - 160° 160° 7 kt METAR LFMT 021100Z AUTO 16007KT 140V210 CAVOK 29/10 Q1019 NOSIG
12:30 p.m.
V
82 °F 6¼ mi+ - 130° 130° 9 kt METAR LFMT 021030Z AUTO 13009KT CAVOK 28/11 Q1019 BECMG 20010KT
12:00 p.m.
V
84 °F 6¼ mi+ - Var Var 5 kt METAR LFMT 021000Z AUTO VRB05KT CAVOK 29/09 Q1019 NOSIG
11:30 a.m.
V
82 °F 6¼ mi+ - 040° 040° 6 kt METAR LFMT 020930Z AUTO 04006KT 320V130 CAVOK 28/09 Q1019 BECMG 20010KT
11:00 a.m.
V
81 °F 6¼ mi+ - 030° 030° 7 kt METAR LFMT 020900Z AUTO 03007KT 340V070 CAVOK 27/09 Q1019 BECMG 20010KT
10:30 a.m.
V
79 °F 6¼ mi+ - 020° 020° 8 kt METAR LFMT 020830Z AUTO 02008KT 340V070 CAVOK 26/11 Q1019 BECMG 20010KT
10:00 a.m.
V
77 °F 6¼ mi+ - 030° 030° 10 kt METAR LFMT 020800Z AUTO 03010KT CAVOK 25/09 Q1019 NOSIG
9:30 a.m.
V
75 °F 6¼ mi+ - 020° 020° 12 kt METAR LFMT 020730Z AUTO 02012KT 350V050 CAVOK 24/09 Q1019 NOSIG
9:00 a.m.
V
75 °F 6¼ mi+ - 010° 010° 8 kt METAR LFMT 020700Z AUTO 01008KT 340V040 CAVOK 24/09 Q1019 NOSIG
8:30 a.m.
V
73 °F 6¼ mi+ - 350° 350° 5 kt METAR LFMT 020630Z AUTO 35005KT 310V010 CAVOK 23/11 Q1019 NOSIG
8:00 a.m.
V
70 °F 6¼ mi+ - Var Var 3 kt METAR LFMT 020600Z AUTO VRB03KT CAVOK 21/12 Q1019 NOSIG
7:30 a.m.
V
68 °F 6¼ mi+ - 340° 340° 2 kt METAR LFMT 020530Z AUTO 34002KT CAVOK 20/12 Q1019 NOSIG
7:00 a.m.
V
64 °F 6¼ mi+ - 340° 340° 4 kt METAR LFMT 020500Z AUTO 34004KT 320V020 CAVOK 18/11 Q1019 NOSIG
6:30 a.m.
V
63 °F 6¼ mi+ - 280° 280° 3 kt METAR LFMT 020430Z AUTO 28003KT CAVOK 17/10 Q1019 NOSIG
6:00 a.m.
V
61 °F 6¼ mi+ - Var Var 2 kt METAR LFMT 020400Z AUTO VRB02KT CAVOK 16/09 Q1019 NOSIG
5:30 a.m.
V
64 °F 6¼ mi+ - 280° 280° 3 kt METAR LFMT 020330Z AUTO 28003KT CAVOK 18/09 Q1018 NOSIG
5:00 a.m.
V
64 °F 6¼ mi+ - 310° 310° 5 kt METAR LFMT 020300Z AUTO 31005KT CAVOK 18/09 Q1018 NOSIG
4:30 a.m.
V
63 °F 6¼ mi+ - 350° 350° 5 kt METAR LFMT 020230Z AUTO 35005KT CAVOK 17/09 Q1018 NOSIG
4:00 a.m.
V
64 °F 6¼ mi+ - 360° 360° 8 kt METAR LFMT 020200Z AUTO 36008KT CAVOK 18/09 Q1018 NOSIG
3:30 a.m.
V
64 °F 6¼ mi+ - 010° 010° 6 kt METAR LFMT 020130Z AUTO 01006KT CAVOK 18/09 Q1018 NOSIG
3:00 a.m.
V
68 °F 6¼ mi+ - 350° 350° 5 kt METAR LFMT 020100Z AUTO 35005KT CAVOK 20/09 Q1019 NOSIG
2:30 a.m.
V
68 °F 6¼ mi+ - 350° 350° 7 kt METAR LFMT 020030Z AUTO 35007KT CAVOK 20/10 Q1019 NOSIG
2:00 a.m.
V
68 °F 6¼ mi+ - 340° 340° 5 kt METAR LFMT 020000Z AUTO 34005KT 300V360 CAVOK 20/09 Q1019 NOSIG
1:30 a.m.
V
68 °F 6¼ mi+ - 340° 340° 3 kt METAR LFMT 012330Z AUTO 34003KT CAVOK 20/09 Q1018 NOSIG
1:00 a.m.
V
68 °F 6¼ mi+ - 350° 350° 4 kt METAR LFMT 012300Z AUTO 35004KT CAVOK 20/10 Q1019 NOSIG
12:30 a.m.
V
68 °F 6¼ mi+ - 360° 360° 7 kt METAR LFMT 012230Z AUTO 36007KT CAVOK 20/10 Q1018 NOSIG
12:00 a.m.
V
72 °F 6¼ mi+ - 340° 340° 1 kt METAR LFMT 012200Z AUTO 34001KT CAVOK 22/10 Q1018 NOSIG

1 juli 2022

Tijd Code Weer Temp. Zicht Plafond Wind METAR/SPECI
11:30 p.m.
V
70 °F 6¼ mi+ - 030° 030° 5 kt METAR LFMT 012130Z AUTO 03005KT CAVOK 21/11 Q1018 NOSIG
11:00 p.m.
V
72 °F 6¼ mi+ - 050° 050° 5 kt METAR LFMT 012100Z AUTO 05005KT CAVOK 22/12 Q1018 BECMG 35010KT
10:30 p.m.
V
72 °F 6¼ mi+ - 070° 070° 8 kt METAR LFMT 012030Z AUTO 07008KT 040V100 CAVOK 22/13 Q1017 NOSIG
10:00 p.m.
V
73 °F 6¼ mi+ - 100° 100° 7 kt METAR LFMT 012000Z AUTO 10007KT CAVOK 23/15 Q1017 NOSIG
9:30 p.m.
V
73 °F 6¼ mi+ - 110° 110° 5 kt METAR LFMT 011930Z AUTO 11005KT CAVOK 23/18 Q1016 NOSIG
9:00 p.m.
V
77 °F 6¼ mi+ - 120° 120° 7 kt METAR LFMT 011900Z AUTO 12007KT 090V220 CAVOK 25/19 Q1016 NOSIG
8:30 p.m.
V
82 °F 6¼ mi+ - 220° 220° 5 kt METAR LFMT 011830Z AUTO 22005KT CAVOK 28/12 Q1016 NOSIG
8:00 p.m.
V
84 °F 6¼ mi+ - 210° 210° 6 kt METAR LFMT 011800Z AUTO 21006KT CAVOK 29/12 Q1015 NOSIG
7:30 p.m.
V
82 °F 6¼ mi+ - 210° 210° 8 kt METAR LFMT 011730Z AUTO 21008KT CAVOK 28/14 Q1015 NOSIG
7:00 p.m.
V
81 °F 6¼ mi+ - 210° 210° 10 kt METAR LFMT 011700Z AUTO 21010KT CAVOK 27/13 Q1015 BECMG 31004KT
6:30 p.m.
V
82 °F 6¼ mi+ - 200° 200° 10 kt METAR LFMT 011630Z AUTO 20010KT CAVOK 28/15 Q1015 BECMG 31004KT
6:00 p.m.
V
82 °F 6¼ mi+ - 190° 190° 10 kt METAR LFMT 011600Z AUTO 19010KT CAVOK 28/14 Q1016 NOSIG
5:30 p.m.
V
82 °F 6¼ mi+ - 180° 180° 10 kt METAR LFMT 011530Z AUTO 18010KT CAVOK 28/11 Q1016 NOSIG
5:00 p.m.
V
82 °F 6¼ mi+ - 180° 180° 8 kt METAR LFMT 011500Z AUTO 18008KT CAVOK 28/09 Q1016 NOSIG
4:30 p.m.
V
82 °F 6¼ mi+ - 180° 180° 10 kt METAR LFMT 011430Z AUTO 18010KT 150V210 CAVOK 28/08 Q1016 NOSIG
4:00 p.m.
V
81 °F 6¼ mi+ - 180° 180° 10 kt METAR LFMT 011400Z AUTO 18010KT CAVOK 27/09 Q1016 NOSIG
3:30 p.m.
V
81 °F 6¼ mi+ - 180° 180° 8 kt METAR LFMT 011330Z AUTO 18008KT CAVOK 27/10 Q1016 NOSIG
3:00 p.m.
V
81 °F 6¼ mi+ - 190° 190° 10 kt METAR LFMT 011300Z AUTO 19010KT CAVOK 27/12 Q1016 NOSIG
2:30 p.m.
V
82 °F 6¼ mi+ - 190° 190° 9 kt METAR LFMT 011230Z AUTO 19009KT CAVOK 28/12 Q1016 NOSIG
2:00 p.m.
V
82 °F 6¼ mi+ - 330° 330° 10 kt METAR LFMT 011200Z AUTO 33010KT 270V010 CAVOK 28/06 Q1016 BECMG 17010KT
1:30 p.m.
V
81 °F 6¼ mi+ - 340° 340° 5 kt METAR LFMT 011130Z AUTO 34005KT 270V050 CAVOK 27/05 Q1017 BECMG 17010KT
1:00 p.m.
V
81 °F 6¼ mi+ - 350° 350° 8 kt METAR LFMT 011100Z AUTO 35008KT 270V070 CAVOK 27/05 Q1017 BECMG 17010KT
12:30 p.m.
V
79 °F 6¼ mi+ - 360° 360° 10 kt METAR LFMT 011030Z AUTO 36010KT 270V050 CAVOK 26/06 Q1017 BECMG 17010KT
12:00 p.m.
V
77 °F 6¼ mi+ - 020° 020° 7 kt METAR LFMT 011000Z AUTO 02007KT 320V070 CAVOK 25/07 Q1017 BECMG 17010KT
11:30 a.m.
V
79 °F 6¼ mi+ - 360° 360° 10 kt METAR LFMT 010930Z AUTO 36010KT 320V050 CAVOK 26/06 Q1017 BECMG 17010KT
11:00 a.m.
V
77 °F 6¼ mi+ - 030° 030° 11 kt METAR LFMT 010900Z AUTO 03011KT CAVOK 25/08 Q1017 BECMG 33010KT
10:30 a.m.
V
75 °F 6¼ mi+ - 360° 360° 9 kt METAR LFMT 010830Z AUTO 36009KT 330V030 CAVOK 24/08 Q1017 BECMG 18012KT
10:00 a.m.
V
73 °F 6¼ mi+ - 320° 320° 11 kt METAR LFMT 010800Z AUTO 32011KT CAVOK 23/09 Q1017 NOSIG
9:30 a.m.
V
72 °F 6¼ mi+ - 320° 320° 7 kt METAR LFMT 010730Z AUTO 32007KT 280V360 CAVOK 22/10 Q1017 NOSIG
9:00 a.m.
V
70 °F 6¼ mi+ - 330° 330° 9 kt METAR LFMT 010700Z AUTO 33009KT 290V010 CAVOK 21/11 Q1017 NOSIG
8:30 a.m.
V
70 °F 6¼ mi+ - 350° 350° 10 kt METAR LFMT 010630Z AUTO 35010KT 320V020 CAVOK 21/11 Q1017 NOSIG
8:00 a.m.
V
68 °F 6¼ mi+ - 330° 330° 8 kt METAR LFMT 010600Z AUTO 33008KT 290V350 CAVOK 20/12 Q1017 NOSIG
7:30 a.m.
V
68 °F 6¼ mi+ - 310° 310° 3 kt METAR LFMT 010530Z AUTO 31003KT 270V340 CAVOK 20/12 Q1017 NOSIG
7:00 a.m.
V
66 °F 6¼ mi+ - 010° 010° 7 kt METAR LFMT 010500Z AUTO 01007KT 340V040 CAVOK 19/12 Q1017 NOSIG
6:30 a.m.
V
63 °F 6¼ mi+ - 360° 360° 6 kt METAR LFMT 010430Z AUTO 36006KT CAVOK 17/11 Q1017 NOSIG
6:00 a.m.
V
64 °F 6¼ mi+ - 010° 010° 5 kt METAR LFMT 010400Z AUTO 01005KT CAVOK 18/12 Q1017 TEMPO SHRA FEW040CB SCT090
5:30 a.m.
V
64 °F 6¼ mi+ - 010° 010° 7 kt METAR LFMT 010330Z AUTO 01007KT 340V040 CAVOK 18/12 Q1016 TEMPO SHRA FEW040CB SCT090
5:00 a.m.
V
66 °F 6¼ mi+ - 020° 020° 7 kt METAR LFMT 010300Z AUTO 02007KT CAVOK 19/11 Q1016 TEMPO SHRA FEW040CB SCT090
4:30 a.m.
V
68 °F 6¼ mi+ - 020° 020° 10 kt METAR LFMT 010230Z AUTO 02010KT CAVOK 20/11 Q1016 TEMPO SHRA FEW040CB SCT090
4:00 a.m.
V
70 °F 6¼ mi+ - 350° 350° 5 kt METAR LFMT 010200Z AUTO 35005KT 310V020 CAVOK 21/12 Q1016 TEMPO SCT040 FEW043CB BKN100
3:30 a.m.
V
68 °F 6¼ mi+ - Var Var 2 kt METAR LFMT 010130Z AUTO VRB02KT CAVOK 20/13 Q1016 TEMPO SCT040 FEW043CB BKN100
3:00 a.m.
V
70 °F 6¼ mi+ 5.600 ft Var Var 2 kt METAR LFMT 010100Z AUTO VRB02KT 9999 FEW048 BKN056 OVC068 21/12 Q1016 TEMPO SCT040 FEW043CB BKN100
2:30 a.m.
V
70 °F 6¼ mi+ 4.600 ft 330° 330° 6 kt METAR LFMT 010030Z AUTO 33006KT 9999 OVC046 21/12 Q1016 TEMPO SCT040 FEW043CB BKN100
2:00 a.m.
V
70 °F 6¼ mi+ 4.400 ft 350° 350° 5 kt METAR LFMT 010000Z AUTO 35005KT 9999 BKN044 OVC056 21/13 Q1016 TEMPO SCT040 FEW043CB BKN100
1:30 a.m.
V
70 °F 6¼ mi+ 4.100 ft 360° 360° 9 kt METAR LFMT 302330Z AUTO 36009KT 9999 OVC041 21/14 Q1016 TEMPO SCT040 FEW043CB BKN100
1:00 a.m.
V
70 °F 6¼ mi+ 3.800 ft 350° 350° 5 kt METAR LFMT 302300Z AUTO 35005KT 9999 BKN038 OVC140 21/14 Q1016 TEMPO SCT040 FEW043CB BKN100
12:30 a.m.
V
72 °F 6¼ mi+ - 360° 360° 6 kt METAR LFMT 302230Z AUTO 36006KT 9999 //////TCU 22/13 Q1015 TEMPO SCT040 FEW043CB BKN100
12:00 a.m.
V
72 °F 6¼ mi+ - 300° 300° 8 kt METAR LFMT 302200Z AUTO 30008KT CAVOK 22/12 Q1015 TEMPO 01010KT SCT040 FEW043CB BKN100

30 juni 2022

Tijd Code Weer Temp. Zicht Plafond Wind METAR/SPECI
11:30 p.m.
V
72 °F 6¼ mi+ - 300° 300° 8 kt METAR LFMT 302130Z AUTO 30008KT 9999 ///TCU 22/12 Q1014 TEMPO 01010KT SCT040 FEW043CB BKN100
11:00 p.m.
V
73 °F 6¼ mi+ - 310° 310° 6 kt METAR LFMT 302100Z AUTO 31006KT CAVOK 23/12 Q1014 TEMPO 01010KT SCT040 FEW043CB BKN100
10:30 p.m.
V
73 °F 6¼ mi+ - 300° 300° 9 kt METAR LFMT 302030Z AUTO 30009KT CAVOK 23/12 Q1014 TEMPO SHRA FEW030CB BKN040
10:00 p.m.
V
73 °F 6¼ mi+ - 300° 300° 10 kt METAR LFMT 302000Z AUTO 30010KT CAVOK 23/13 Q1013 TEMPO SHRA FEW030CB BKN040
9:30 p.m.
V
73 °F 6¼ mi+ - 290° 290° 12 kt METAR LFMT 301930Z AUTO 29012KT CAVOK 23/13 Q1013 TEMPO SHRA FEW030CB BKN040
9:00 p.m.
V
73 °F 6¼ mi+ - 290° 290° 11 kt METAR LFMT 301900Z AUTO 29011KT CAVOK 23/13 Q1013 TEMPO SHRA FEW030CB BKN040
8:30 p.m.
V
75 °F 6¼ mi+ - 290° 290° 12 kt METAR LFMT 301830Z AUTO 29012KT CAVOK 24/14 Q1013 TEMPO SHRA FEW030CB BKN040
8:00 p.m.
V
75 °F 6¼ mi+ - 290° 290° 13 kt METAR LFMT 301800Z AUTO 29013KT CAVOK 24/14 Q1012 TEMPO SHRA FEW030CB BKN040
7:30 p.m.
V
77 °F 6¼ mi+ - 280° 280° 12 kt METAR LFMT 301730Z AUTO 28012KT CAVOK 25/14 Q1012 TEMPO SHRA FEW030CB BKN040
7:00 p.m.
V
77 °F 6¼ mi+ - 270° 270° 12 kt METAR LFMT 301700Z AUTO 27012KT CAVOK 25/15 Q1012 TEMPO 21015KT SHRA FEW030CB BKN040
Oudere gegevens

Installeer onze app

Gemakkelijke toegang tot al het luchtvaartweer op je mobiele telefoon en tablet.
Met veel functies die niet op de website beschikbaar zijn, zoals offline ondersteuning en een persoonlijke lijst van vliegvelden.

Met cookies volgen wij en derde partijen jouw internetgedrag binnen onze site. Als je verdergaat gaan we ervan uit dat je dit goedvindt. Meer info